Time;durP1;ratioP1;P1;durP2;ratioP2;P2;SDS_P1;SDS_P2;PMS_P1;PMS_P2;Temp;Humidity;BMP_temperature;BMP_pressure;BME280_temperature;BME280_humidity;BME280_pressure;Samples;Min_cycle;Max_cycle;Signal;HPM_P1;HPM_P2
2024/02/06 00:04:11;;;;;;;0.50;0.50;;;5.90;99.90;;;;;;10475079;28;20205;-82
2024/02/06 00:09:15;;;;;;;0.40;0.40;;;5.90;99.90;;;;;;10485590;28;20571;-81
2024/02/06 00:14:17;;;;;;;0.57;0.57;;;5.80;99.90;;;;;;10478275;28;20252;-81
2024/02/06 00:19:20;;;;;;;0.50;0.50;;;5.90;99.90;;;;;;10420772;28;20219;-80
2024/02/06 00:24:23;;;;;;;0.60;0.60;;;5.90;99.90;;;;;;10483072;28;20256;-81
2024/02/06 00:29:28;;;;;;;0.40;0.40;;;5.90;99.90;;;;;;10483415;28;20260;-81
2024/02/06 00:34:30;;;;;;;0.60;0.60;;;5.80;99.90;;;;;;10435616;28;20244;-81
2024/02/06 00:39:34;;;;;;;0.50;0.50;;;5.80;99.90;;;;;;10475536;28;20217;-81
2024/02/06 00:44:36;;;;;;;0.50;0.50;;;5.80;99.90;;;;;;10476827;28;20189;-81
2024/02/06 00:49:38;;;;;;;0.40;0.40;;;5.80;99.90;;;;;;10476598;28;20222;-81
2024/02/06 00:54:42;;;;;;;0.50;0.50;;;5.80;99.90;;;;;;10478256;28;20660;-81
2024/02/06 00:59:44;;;;;;;0.50;0.50;;;5.90;99.90;;;;;;10474085;28;20226;-81
2024/02/06 01:04:47;;;;;;;0.40;0.40;;;5.90;99.90;;;;;;10474181;28;20194;-82
2024/02/06 01:09:50;;;;;;;0.50;0.50;;;6.00;99.90;;;;;;10471073;28;20237;-81
2024/02/06 01:14:55;;;;;;;0.40;0.40;;;6.20;99.90;;;;;;10467834;28;20209;-81
2024/02/06 01:19:57;;;;;;;0.43;0.43;;;6.30;99.90;;;;;;10470546;28;20280;-81
2024/02/06 01:25:01;;;;;;;0.50;0.50;;;6.50;99.90;;;;;;10429592;28;20197;-81
2024/02/06 01:30:04;;;;;;;0.50;0.50;;;6.70;99.90;;;;;;10471153;28;20251;-81
2024/02/06 01:35:08;;;;;;;0.40;0.40;;;6.80;99.90;;;;;;10478418;28;20578;-82
2024/02/06 01:40:12;;;;;;;0.50;0.50;;;6.90;99.90;;;;;;10449951;28;20544;-81
2024/02/06 01:45:14;;;;;;;0.50;0.50;;;7.00;99.90;;;;;;10449761;28;20198;-81
2024/02/06 01:50:17;;;;;;;0.53;0.53;;;7.00;99.90;;;;;;10453144;28;20282;-82
2024/02/06 01:55:21;;;;;;;0.50;0.50;;;7.00;99.90;;;;;;10483058;28;20256;-82
2024/02/06 02:00:24;;;;;;;0.40;0.40;;;7.10;99.90;;;;;;10479473;28;20225;-83
2024/02/06 02:05:26;;;;;;;0.50;0.50;;;7.00;99.90;;;;;;10481294;28;20244;-82
2024/02/06 02:10:30;;;;;;;0.50;0.50;;;7.00;99.90;;;;;;10487291;28;20228;-81
2024/02/06 02:15:32;;;;;;;0.50;0.50;;;7.10;99.90;;;;;;10476996;28;20197;-81
2024/02/06 02:20:35;;;;;;;0.40;0.40;;;7.10;99.90;;;;;;10474502;28;20213;-81
2024/02/06 02:25:39;;;;;;;0.50;0.50;;;7.10;99.90;;;;;;10488483;28;20254;-83
2024/02/06 02:30:42;;;;;;;0.43;0.43;;;7.10;99.90;;;;;;10473101;28;20248;-82
2024/02/06 02:35:45;;;;;;;0.40;0.40;;;7.20;99.90;;;;;;10469780;28;20216;-81
2024/02/06 02:40:49;;;;;;;0.50;0.50;;;7.20;99.90;;;;;;10451477;28;20222;-82
2024/02/06 02:45:52;;;;;;;0.40;0.40;;;7.10;99.90;;;;;;10496334;28;20195;-81
2024/02/06 02:50:54;;;;;;;0.47;0.47;;;7.10;99.90;;;;;;10478397;28;20605;-82
2024/02/06 02:55:59;;;;;;;0.50;0.50;;;7.20;99.90;;;;;;10449480;28;20244;-82
2024/02/06 03:01:01;;;;;;;0.40;0.40;;;7.10;99.90;;;;;;10453659;28;20222;-81
2024/02/06 03:06:04;;;;;;;0.50;0.50;;;7.00;99.90;;;;;;10452475;28;20201;-81
2024/02/06 03:11:07;;;;;;;0.50;0.50;;;6.90;99.90;;;;;;10449096;28;20228;-81
2024/02/06 03:16:10;;;;;;;0.40;0.40;;;6.80;99.90;;;;;;10450785;28;20198;-81
2024/02/06 03:21:12;;;;;;;0.50;0.50;;;6.80;99.90;;;;;;10456390;28;20356;-81
2024/02/06 03:26:16;;;;;;;0.60;0.60;;;6.60;99.90;;;;;;10452331;28;20240;-81
2024/02/06 03:31:18;;;;;;;0.50;0.50;;;6.50;99.90;;;;;;10454647;28;20225;-80
2024/02/06 03:36:21;;;;;;;0.50;0.50;;;6.40;99.90;;;;;;10452612;28;20259;-81
2024/02/06 03:41:24;;;;;;;0.40;0.40;;;6.30;99.90;;;;;;10435478;28;20564;-81
2024/02/06 03:46:27;;;;;;;0.50;0.50;;;6.20;99.90;;;;;;10447585;28;20198;-81
2024/02/06 03:51:29;;;;;;;0.50;0.50;;;6.20;99.90;;;;;;10445460;28;20244;-81
2024/02/06 03:56:33;;;;;;;0.50;0.50;;;6.10;99.90;;;;;;10447643;28;20190;-81
2024/02/06 04:01:36;;;;;;;0.43;0.43;;;6.00;99.90;;;;;;10444930;28;20217;-81
2024/02/06 04:06:39;;;;;;;0.80;0.80;;;5.90;99.90;;;;;;10442969;28;20254;-81
2024/02/06 04:11:43;;;;;;;1.07;1.07;;;5.90;99.90;;;;;;10446921;28;20288;-82
2024/02/06 04:16:46;;;;;;;0.80;0.80;;;5.80;99.90;;;;;;10450403;28;20198;-81
2024/02/06 04:21:49;;;;;;;1.00;1.00;;;5.80;99.90;;;;;;10449296;28;20218;-81
2024/02/06 04:26:52;;;;;;;0.90;0.90;;;5.80;99.90;;;;;;10447557;28;20190;-81
2024/02/06 04:31:55;;;;;;;0.83;0.83;;;5.70;99.90;;;;;;10446595;28;20236;-81
2024/02/06 04:36:57;;;;;;;1.00;1.00;;;5.60;99.90;;;;;;10443403;28;20217;-81
2024/02/06 04:42:01;;;;;;;0.80;0.80;;;5.60;99.90;;;;;;10450120;28;20228;-81
2024/02/06 04:47:03;;;;;;;0.83;0.83;;;5.50;99.90;;;;;;10443521;28;20272;-81
2024/02/06 04:52:06;;;;;;;0.70;0.70;;;5.50;99.90;;;;;;10440506;28;20240;-81
2024/02/06 04:57:10;;;;;;;0.70;0.70;;;5.50;99.90;;;;;;10438017;28;20202;-81
2024/02/06 05:02:13;;;;;;;0.80;0.80;;;5.40;99.90;;;;;;10460385;22;20229;-78
2024/02/06 05:07:15;;;;;;;0.90;0.90;;;5.40;99.90;;;;;;10454367;28;20201;-79
2024/02/06 05:12:19;;;;;;;0.80;0.80;;;5.40;99.90;;;;;;10454494;28;20278;-79
2024/02/06 05:17:21;;;;;;;0.50;0.50;;;5.40;99.90;;;;;;10454329;28;20193;-79
2024/02/06 05:22:23;;;;;;;0.70;0.70;;;5.40;99.90;;;;;;10454218;28;20228;-78
2024/02/06 05:27:27;;;;;;;0.70;0.70;;;5.40;99.90;;;;;;10462902;28;20216;-80
2024/02/06 05:32:30;;;;;;;0.50;0.50;;;5.30;99.90;;;;;;10465684;28;20298;-79
2024/02/06 05:37:32;;;;;;;0.60;0.60;;;5.40;99.90;;;;;;10451489;28;20197;-79
2024/02/06 05:42:36;;;;;;;0.80;0.80;;;5.50;99.90;;;;;;10455212;28;20233;-79
2024/02/06 05:47:40;;;;;;;0.70;0.70;;;5.60;99.90;;;;;;10453776;28;20264;-80
2024/02/06 05:52:42;;;;;;;0.43;0.43;;;5.90;99.90;;;;;;10452346;28;20224;-78
2024/02/06 05:57:46;;;;;;;0.70;0.70;;;6.10;99.90;;;;;;10451755;28;20197;-78
2024/02/06 06:02:48;;;;;;;0.40;0.40;;;6.30;99.90;;;;;;10449941;28;20225;-79
2024/02/06 06:07:50;;;;;;;0.40;0.40;;;6.50;99.90;;;;;;10452300;28;20201;-80
2024/02/06 06:12:54;;;;;;;0.50;0.50;;;6.60;99.90;;;;;;10451222;28;20233;-80
2024/02/06 06:17:56;;;;;;;0.30;0.30;;;6.80;99.90;;;;;;10446991;28;20197;-78
2024/02/06 06:22:59;;;;;;;0.50;0.50;;;6.80;99.90;;;;;;10453622;28;20205;-79
2024/02/06 06:28:04;;;;;;;0.47;0.47;;;7.00;99.90;;;;;;10453054;28;20238;-78
2024/02/06 06:33:06;;;;;;;0.40;0.40;;;7.00;99.90;;;;;;10461239;28;20404;-81
2024/02/06 06:38:08;;;;;;;0.50;0.50;;;7.00;99.90;;;;;;10451915;28;21326;-80
2024/02/06 06:43:12;;;;;;;0.40;0.40;;;7.00;99.90;;;;;;10452363;28;20613;-78
2024/02/06 06:48:14;;;;;;;0.50;0.50;;;7.10;99.90;;;;;;10454225;28;20212;-81
2024/02/06 06:53:16;;;;;;;0.40;0.40;;;7.00;99.90;;;;;;10470556;28;20469;-80
2024/02/06 06:58:20;;;;;;;0.33;0.33;;;7.00;99.70;;;;;;10472519;28;20205;-79
2024/02/06 07:03:22;;;;;;;0.53;0.53;;;7.00;99.60;;;;;;10474026;28;20239;-80
2024/02/06 07:08:25;;;;;;;0.50;0.50;;;7.10;99.40;;;;;;10474720;28;20255;-79
2024/02/06 07:13:28;;;;;;;0.50;0.50;;;7.10;99.50;;;;;;10476234;28;20279;-80
2024/02/06 07:18:31;;;;;;;0.40;0.40;;;7.10;99.30;;;;;;10476762;28;20194;-78
2024/02/06 07:23:33;;;;;;;0.40;0.40;;;7.20;99.30;;;;;;10481178;28;20655;-79
2024/02/06 07:28:37;;;;;;;0.43;0.43;;;7.20;99.10;;;;;;10478769;28;20205;-79
2024/02/06 07:33:40;;;;;;;0.50;0.50;;;7.30;99.10;;;;;;10477494;28;20223;-79
2024/02/06 07:38:43;;;;;;;0.50;0.50;;;7.30;99.00;;;;;;10477950;28;20197;-80
2024/02/06 07:43:46;;;;;;;0.40;0.40;;;7.30;99.30;;;;;;10474687;28;20213;-79
2024/02/06 07:48:51;;;;;;;0.53;0.53;;;7.40;99.30;;;;;;10476682;28;20205;-79
2024/02/06 07:53:54;;;;;;;0.50;0.50;;;7.40;99.20;;;;;;10478939;28;20229;-79
2024/02/06 07:58:59;;;;;;;0.60;0.60;;;7.60;99.10;;;;;;10471431;28;20615;-81
2024/02/06 08:04:01;;;;;;;0.40;0.40;;;7.70;98.80;;;;;;10459376;28;20227;-81
2024/02/06 08:09:05;;;;;;;0.10;0.10;;;7.70;99.10;;;;;;10459484;28;20685;-80
2024/02/06 08:14:13;;;;;;;0.37;0.37;;;7.80;98.80;;;;;;10467474;28;20272;-80
2024/02/06 08:19:16;;;;;;;0.37;0.37;;;7.80;98.70;;;;;;10478255;28;20189;-81
2024/02/06 08:24:18;;;;;;;0.40;0.40;;;8.00;98.70;;;;;;10486241;28;20231;-79
2024/02/06 08:29:22;;;;;;;0.23;0.23;;;8.00;98.80;;;;;;10460386;28;20196;-80
2024/02/06 08:34:25;;;;;;;0.20;0.20;;;8.00;98.90;;;;;;10462676;28;20232;-80
2024/02/06 08:39:27;;;;;;;0.20;0.20;;;8.10;98.80;;;;;;10458759;28;20517;-80
2024/02/06 08:44:31;;;;;;;0.20;0.20;;;8.30;98.40;;;;;;10458781;28;20221;-80
2024/02/06 08:49:33;;;;;;;0.20;0.20;;;8.30;98.40;;;;;;10457508;28;20756;-80
2024/02/06 08:54:36;;;;;;;0.20;0.20;;;8.40;98.60;;;;;;10458139;28;20232;-80
2024/02/06 08:59:39;;;;;;;0.30;0.30;;;8.50;98.20;;;;;;10457599;28;20208;-80
2024/02/06 09:04:42;;;;;;;0.30;0.30;;;8.60;98.00;;;;;;10455862;28;20659;-79
2024/02/06 09:09:44;;;;;;;0.30;0.30;;;8.70;98.00;;;;;;10453894;28;20267;-81
2024/02/06 09:14:48;;;;;;;0.30;0.30;;;8.70;98.00;;;;;;10455913;28;20221;-80
2024/02/06 09:19:50;;;;;;;0.30;0.30;;;8.70;97.80;;;;;;10456188;28;20197;-79
2024/02/06 09:24:53;;;;;;;0.30;0.30;;;8.70;98.00;;;;;;10456668;28;20690;-80
2024/02/06 09:29:56;;;;;;;0.30;0.30;;;8.80;98.30;;;;;;10456687;28;20200;-80
2024/02/06 09:34:59;;;;;;;0.30;0.30;;;8.90;97.90;;;;;;10454078;28;20220;-79
2024/02/06 09:40:01;;;;;;;0.30;0.30;;;9.10;97.70;;;;;;10454891;28;20772;-80
2024/02/06 09:45:07;;;;;;;0.20;0.20;;;9.10;97.80;;;;;;10454951;28;20213;-80
2024/02/06 09:50:10;;;;;;;0.33;0.33;;;9.30;97.90;;;;;;10459378;28;20194;-79
2024/02/06 09:55:13;;;;;;;0.30;0.30;;;9.50;97.70;;;;;;10472300;28;20220;-78
2024/02/06 10:00:19;;;;;;;0.30;0.30;;;9.70;97.70;;;;;;10454284;28;20683;-80
2024/02/06 10:05:26;;;;;;;0.40;0.40;;;9.90;97.50;;;;;;10451855;28;20221;-79
2024/02/06 10:10:30;;;;;;;0.20;0.20;;;10.00;96.60;;;;;;10451324;28;20186;-78
2024/02/06 10:15:34;;;;;;;0.30;0.30;;;10.00;96.70;;;;;;10450437;28;20224;-79
2024/02/06 10:20:44;;;;;;;0.30;0.30;;;10.10;96.60;;;;;;10451924;28;20208;-80
2024/02/06 10:25:48;;;;;;;0.30;0.30;;;10.20;96.60;;;;;;10448907;28;20247;-79
2024/02/06 10:30:52;;;;;;;0.30;0.30;;;10.20;96.80;;;;;;10452543;28;20221;-79
2024/02/06 10:36:02;;;;;;;0.30;0.30;;;10.40;96.60;;;;;;10453543;28;20221;-81
2024/02/06 10:41:08;;;;;;;0.30;0.30;;;10.50;96.50;;;;;;10453352;28;20271;-81
2024/02/06 10:46:12;;;;;;;0.30;0.30;;;10.60;96.20;;;;;;10440734;28;20259;-80
2024/02/06 10:51:22;;;;;;;0.30;0.30;;;10.70;96.30;;;;;;10448297;28;20220;-78
2024/02/06 10:56:26;;;;;;;0.40;0.40;;;10.80;96.20;;;;;;10451764;28;20205;-80
2024/02/06 11:01:36;;;;;;;0.30;0.30;;;10.80;96.00;;;;;;10454776;28;20229;-81
2024/02/06 11:06:44;;;;;;;0.30;0.30;;;10.90;96.00;;;;;;10449687;28;20197;-80
2024/02/06 11:11:47;;;;;;;0.30;0.30;;;11.00;95.90;;;;;;10453141;28;20279;-81
2024/02/06 11:16:55;;;;;;;0.50;0.50;;;11.00;95.80;;;;;;10457025;28;20213;-82
2024/02/06 11:22:04;;;;;;;0.30;0.30;;;11.20;95.60;;;;;;10450333;28;20221;-80
2024/02/06 11:27:07;;;;;;;0.40;0.40;;;11.20;95.50;;;;;;10451795;28;20204;-82
2024/02/06 11:32:11;;;;;;;0.30;0.30;;;11.30;95.70;;;;;;10461376;28;20225;-82
2024/02/06 11:37:23;;;;;;;0.23;0.23;;;11.30;95.40;;;;;;10461895;28;20224;-81
2024/02/06 11:42:25;;;;;;;0.20;0.20;;;11.40;95.60;;;;;;10461315;28;20220;-79
2024/02/06 11:47:29;;;;;;;0.30;0.30;;;11.30;95.40;;;;;;10461907;28;20243;-81
2024/02/06 11:52:31;;;;;;;0.40;0.40;;;11.30;95.30;;;;;;10463316;28;20225;-82
2024/02/06 11:57:35;;;;;;;0.20;0.20;;;11.40;95.40;;;;;;10462547;28;20209;-79
2024/02/06 12:02:38;;;;;;;0.30;0.30;;;11.40;95.40;;;;;;10464396;28;20225;-81
2024/02/06 12:07:52;;;;;;;0.30;0.30;;;11.50;95.30;;;;;;10460094;28;20608;-81
2024/02/06 12:12:56;;;;;;;0.20;0.20;;;11.50;95.30;;;;;;10459784;28;20213;-80
2024/02/06 12:18:03;;;;;;;0.30;0.30;;;11.60;95.60;;;;;;10459175;28;20193;-81
2024/02/06 12:23:06;;;;;;;0.20;0.20;;;11.60;95.50;;;;;;10458448;28;20248;-80
2024/02/06 12:28:13;;;;;;;0.30;0.30;;;11.60;95.10;;;;;;10451177;28;20190;-79
2024/02/06 12:33:17;;;;;;;0.30;0.30;;;11.60;95.00;;;;;;10459382;28;20221;-81
2024/02/06 12:38:20;;;;;;;0.23;0.23;;;11.60;95.00;;;;;;10458741;28;20255;-81
2024/02/06 12:43:22;;;;;;;0.20;0.20;;;11.70;95.10;;;;;;10459417;28;20702;-81
2024/02/06 12:48:26;;;;;;;0.10;0.10;;;11.70;95.10;;;;;;10458705;28;20201;-82
2024/02/06 12:53:29;;;;;;;0.20;0.20;;;11.70;94.50;;;;;;10462087;28;20228;-81
2024/02/06 12:58:32;;;;;;;0.30;0.30;;;11.70;94.40;;;;;;10463119;28;20201;-79
2024/02/06 13:03:38;;;;;;;0.30;0.30;;;11.80;94.40;;;;;;10458189;28;20278;-82
2024/02/06 13:08:50;;;;;;;0.40;0.40;;;11.70;94.70;;;;;;10457280;28;20201;-82
2024/02/06 13:13:55;;;;;;;0.30;0.30;;;11.60;94.60;;;;;;10457487;28;20228;-79
2024/02/06 13:19:02;;;;;;;0.30;0.30;;;11.60;94.60;;;;;;10456176;28;20198;-80
2024/02/06 13:24:07;;;;;;;0.40;0.40;;;11.60;94.70;;;;;;10457195;28;20274;-80
2024/02/06 13:29:09;;;;;;;0.10;0.10;;;11.60;94.50;;;;;;10455929;28;20197;-81
2024/02/06 13:34:13;;;;;;;0.20;0.20;;;11.60;94.60;;;;;;10457264;28;20263;-81
2024/02/06 13:39:15;;;;;;;0.30;0.30;;;11.60;94.60;;;;;;10455403;28;20193;-80
2024/02/06 13:44:17;;;;;;;0.30;0.30;;;11.50;94.80;;;;;;10458254;28;20271;-80
2024/02/06 13:49:21;;;;;;;0.30;0.30;;;11.50;94.70;;;;;;10457953;28;20201;-80
2024/02/06 13:54:23;;;;;;;0.30;0.30;;;11.60;94.60;;;;;;10457466;28;20287;-82
2024/02/06 13:59:26;;;;;;;0.30;0.30;;;11.60;94.60;;;;;;10461391;28;20201;-80
2024/02/06 14:04:30;;;;;;;0.30;0.30;;;11.60;94.50;;;;;;10461419;28;20213;-82
2024/02/06 14:09:32;;;;;;;0.40;0.40;;;11.60;94.60;;;;;;10457362;28;20205;-80
2024/02/06 14:14:34;;;;;;;0.20;0.20;;;11.60;94.50;;;;;;10464757;28;20213;-80
2024/02/06 14:19:38;;;;;;;0.27;0.27;;;11.60;94.20;;;;;;10455835;28;20193;-80
2024/02/06 14:24:40;;;;;;;0.40;0.40;;;11.60;94.40;;;;;;10453851;28;20741;-81
2024/02/06 14:29:43;;;;;;;0.20;0.20;;;11.60;94.30;;;;;;10454729;28;20467;-80
2024/02/06 14:34:47;;;;;;;0.30;0.30;;;11.50;94.20;;;;;;10455266;28;20713;-80
2024/02/06 14:39:49;;;;;;;0.40;0.40;;;11.60;93.90;;;;;;10453918;28;20205;-80
2024/02/06 14:44:52;;;;;;;0.50;0.50;;;11.60;94.00;;;;;;10453703;28;20267;-81
2024/02/06 14:49:55;;;;;;;0.40;0.40;;;11.50;93.90;;;;;;10454713;28;20197;-78
2024/02/06 14:54:58;;;;;;;0.40;0.40;;;11.50;94.10;;;;;;10453892;28;20702;-82
2024/02/06 15:00:00;;;;;;;0.40;0.40;;;11.40;94.10;;;;;;10454409;28;20194;-80
2024/02/06 15:05:05;;;;;;;0.33;0.33;;;11.40;94.00;;;;;;10460473;28;20592;-81
2024/02/06 15:10:07;;;;;;;0.10;0.10;;;11.40;94.00;;;;;;10461091;28;20485;-79
2024/02/06 15:15:10;;;;;;;0.40;0.40;;;11.40;93.70;;;;;;10459503;28;20224;-80
2024/02/06 15:20:14;;;;;;;0.30;0.30;;;11.30;94.00;;;;;;10461657;28;20278;-81
2024/02/06 15:25:16;;;;;;;0.20;0.20;;;11.30;94.00;;;;;;10461293;28;20216;-80
2024/02/06 15:30:20;;;;;;;0.40;0.40;;;11.20;94.10;;;;;;10462111;28;20202;-80
2024/02/06 15:35:23;;;;;;;0.40;0.40;;;11.00;94.00;;;;;;10460775;28;20238;-82
2024/02/06 15:40:26;;;;;;;0.33;0.33;;;10.90;94.20;;;;;;10463433;28;20197;-80
2024/02/06 15:45:28;;;;;;;0.30;0.30;;;10.80;94.10;;;;;;10461795;28;20948;-81
2024/02/06 15:50:32;;;;;;;0.30;0.30;;;10.70;94.20;;;;;;10462725;28;20189;-82
2024/02/06 15:55:34;;;;;;;0.40;0.40;;;10.50;94.40;;;;;;10468854;28;20221;-82
2024/02/06 16:00:37;;;;;;;0.40;0.40;;;10.50;94.20;;;;;;10470189;28;20204;-81
2024/02/06 16:05:42;;;;;;;0.40;0.40;;;10.50;94.40;;;;;;10458172;28;20201;-80
2024/02/06 16:10:45;;;;;;;0.10;0.10;;;10.50;94.50;;;;;;10458415;28;20254;-81
2024/02/06 16:15:47;;;;;;;0.40;0.40;;;10.40;94.50;;;;;;10457919;28;20224;-80
2024/02/06 16:20:51;;;;;;;0.40;0.40;;;10.40;94.40;;;;;;10459304;28;20483;-80
2024/02/06 16:25:54;;;;;;;0.20;0.20;;;10.30;94.50;;;;;;10457508;28;20223;-81
2024/02/06 16:30:56;;;;;;;0.40;0.40;;;10.30;94.50;;;;;;10459404;28;20220;-81
2024/02/06 16:36:01;;;;;;;0.30;0.30;;;10.10;94.60;;;;;;10458424;28;20299;-81
2024/02/06 16:41:03;;;;;;;0.20;0.20;;;10.00;94.80;;;;;;10442699;28;20324;-80
2024/02/06 16:46:07;;;;;;;0.30;0.30;;;10.00;94.80;;;;;;10462235;28;20667;-81
2024/02/06 16:51:14;;;;;;;0.30;0.30;;;9.90;95.50;;;;;;10449940;28;20225;-78
2024/02/06 16:56:17;;;;;;;0.40;0.40;;;9.90;95.40;;;;;;10456901;28;20213;-79
2024/02/06 17:01:19;;;;;;;0.40;0.40;;;9.80;95.40;;;;;;10457009;28;20228;-81
2024/02/06 17:06:23;;;;;;;0.30;0.30;;;9.70;95.50;;;;;;10458042;28;20643;-80
2024/02/06 17:11:25;;;;;;;0.50;0.50;;;9.70;95.70;;;;;;10457000;28;20225;-80
2024/02/06 17:16:27;;;;;;;0.30;0.30;;;9.60;95.90;;;;;;10456805;28;20641;-80
2024/02/06 17:21:31;;;;;;;0.40;0.40;;;9.50;96.10;;;;;;10454780;28;20270;-79
2024/02/06 17:26:34;;;;;;;0.53;0.53;;;9.50;96.20;;;;;;10455241;28;20255;-80
2024/02/06 17:31:36;;;;;;;0.50;0.50;;;9.40;96.10;;;;;;10454544;28;20221;-79
2024/02/06 17:36:41;;;;;;;0.20;0.20;;;9.30;96.20;;;;;;10454016;28;20232;-78
2024/02/06 17:41:45;;;;;;;0.50;0.50;;;9.30;96.20;;;;;;10452431;28;20217;-79
2024/02/06 17:46:47;;;;;;;0.40;0.40;;;9.30;96.20;;;;;;10455072;28;20622;-78
2024/02/06 17:51:51;;;;;;;0.60;0.60;;;9.20;96.30;;;;;;10454998;28;20270;-79
2024/02/06 17:56:53;;;;;;;0.40;0.40;;;9.20;96.20;;;;;;10453693;28;20247;-79
2024/02/06 18:01:57;;;;;;;0.40;0.40;;;9.20;96.30;;;;;;10452322;28;20221;-80
2024/02/06 18:07:01;;;;;;;0.30;0.30;;;9.20;96.40;;;;;;10453604;28;20201;-79
2024/02/06 18:12:03;;;;;;;0.60;0.60;;;9.20;96.30;;;;;;10453989;28;20229;-79
2024/02/06 18:17:15;;;;;;;0.40;0.40;;;9.20;96.50;;;;;;10455837;28;20220;-80
2024/02/06 18:22:19;;;;;;;0.60;0.60;;;9.10;96.90;;;;;;10447136;28;20217;-79
2024/02/06 18:27:22;;;;;;;0.60;0.60;;;9.20;96.60;;;;;;10452924;28;20615;-79
2024/02/06 18:32:24;;;;;;;0.13;0.13;;;9.10;96.90;;;;;;10451141;28;20745;-81
2024/02/06 18:37:28;;;;;;;0.60;0.60;;;9.10;96.80;;;;;;10451924;28;20706;-79
2024/02/06 18:42:30;;;;;;;0.70;0.70;;;9.10;96.80;;;;;;10449719;28;20237;-80
2024/02/06 18:47:33;;;;;;;0.40;0.40;;;8.90;97.40;;;;;;10452480;28;20198;-81
2024/02/06 18:52:38;;;;;;;0.60;0.60;;;9.00;97.10;;;;;;10452033;28;20221;-82
2024/02/06 18:57:41;;;;;;;0.50;0.50;;;9.00;97.20;;;;;;10453281;28;20217;-80
2024/02/06 19:02:43;;;;;;;0.50;0.50;;;9.00;97.30;;;;;;10454381;28;20722;-81
2024/02/06 19:07:47;;;;;;;0.60;0.60;;;8.90;97.60;;;;;;10454220;28;20937;-79
2024/02/06 19:12:49;;;;;;;0.40;0.40;;;9.00;97.30;;;;;;10452554;28;20216;-78
2024/02/06 19:17:52;;;;;;;0.20;0.20;;;9.00;97.40;;;;;;10453569;28;20212;-79
2024/02/06 19:22:56;;;;;;;0.10;0.10;;;9.00;97.30;;;;;;10450676;28;20221;-78
2024/02/06 19:27:58;;;;;;;0.50;0.50;;;9.10;97.30;;;;;;10450211;28;20221;-79
2024/02/06 19:33:00;;;;;;;0.50;0.50;;;9.10;97.30;;;;;;10451645;28;20295;-81
2024/02/06 19:38:06;;;;;;;0.10;0.10;;;9.20;97.30;;;;;;10454131;28;20671;-81
2024/02/06 19:43:09;;;;;;;0.50;0.50;;;9.20;97.30;;;;;;10459014;28;20283;-80
2024/02/06 19:48:14;;;;;;;0.50;0.50;;;9.30;97.30;;;;;;10453195;28;20553;-82
2024/02/06 19:53:18;;;;;;;0.40;0.40;;;9.40;97.30;;;;;;10457063;28;20221;-80
2024/02/06 19:58:20;;;;;;;0.50;0.50;;;9.40;97.10;;;;;;10459703;28;20225;-81
2024/02/06 20:03:23;;;;;;;0.60;0.60;;;9.40;97.20;;;;;;10462824;28;20643;-79
2024/02/06 20:08:29;;;;;;;0.40;0.40;;;9.50;97.40;;;;;;10470911;28;20197;-80
2024/02/06 20:13:33;;;;;;;0.60;0.60;;;9.50;97.10;;;;;;10460104;28;20274;-79
2024/02/06 20:18:36;;;;;;;0.43;0.43;;;9.50;97.30;;;;;;10459352;28;20209;-81
2024/02/06 20:23:40;;;;;;;0.50;0.50;;;9.60;97.10;;;;;;10459901;28;20217;-80
2024/02/06 20:28:42;;;;;;;0.50;0.50;;;9.60;97.10;;;;;;10457639;28;20667;-79
2024/02/06 20:33:44;;;;;;;0.60;0.60;;;9.60;97.20;;;;;;10455100;28;20216;-80
2024/02/06 20:38:48;;;;;;;0.60;0.60;;;9.60;97.00;;;;;;10460479;28;20217;-80
2024/02/06 20:43:51;;;;;;;0.40;0.40;;;9.60;96.90;;;;;;10466341;28;20221;-80
2024/02/06 20:48:53;;;;;;;0.50;0.50;;;9.60;96.90;;;;;;10455732;28;20612;-81
2024/02/06 20:53:57;;;;;;;0.60;0.60;;;9.60;96.90;;;;;;10453482;28;20229;-81
2024/02/06 20:58:59;;;;;;;0.40;0.40;;;9.60;96.90;;;;;;10452496;28;20221;-78
2024/02/06 21:04:02;;;;;;;0.50;0.50;;;9.50;96.90;;;;;;10450187;28;20325;-80
2024/02/06 21:09:08;;;;;;;0.50;0.50;;;9.50;96.90;;;;;;10453213;28;20197;-79
2024/02/06 21:14:10;;;;;;;0.50;0.50;;;9.50;97.00;;;;;;10453685;28;20267;-81
2024/02/06 21:19:13;;;;;;;0.50;0.50;;;9.40;97.00;;;;;;10453581;28;20678;-81
2024/02/06 21:24:17;;;;;;;0.60;0.60;;;9.40;97.00;;;;;;10454089;28;20891;-81
2024/02/06 21:29:22;;;;;;;0.50;0.50;;;9.40;96.90;;;;;;10453478;28;20193;-80
2024/02/06 21:34:25;;;;;;;0.40;0.40;;;9.40;97.00;;;;;;10454108;28;20229;-81
2024/02/06 21:39:29;;;;;;;0.40;0.40;;;9.40;97.10;;;;;;10451499;28;20216;-79
2024/02/06 21:44:32;;;;;;;0.30;0.30;;;9.30;97.00;;;;;;10453534;28;20225;-79
2024/02/06 21:49:34;;;;;;;0.30;0.30;;;9.30;97.00;;;;;;10452439;28;20193;-81
2024/02/06 21:54:38;;;;;;;0.40;0.40;;;9.30;97.10;;;;;;10452727;28;20925;-80
2024/02/06 21:59:42;;;;;;;0.33;0.33;;;9.40;97.00;;;;;;10453360;28;20205;-82
2024/02/06 22:04:44;;;;;;;0.30;0.30;;;9.40;96.90;;;;;;10452659;28;20221;-79
2024/02/06 22:09:48;;;;;;;0.40;0.40;;;9.30;96.90;;;;;;10456986;28;20197;-79
2024/02/06 22:14:50;;;;;;;0.40;0.40;;;9.40;96.90;;;;;;10451458;28;20217;-79
2024/02/06 22:19:53;;;;;;;0.50;0.50;;;9.40;97.00;;;;;;10449950;28;20671;-80
2024/02/06 22:24:56;;;;;;;0.40;0.40;;;9.40;97.00;;;;;;10451180;28;20735;-80
2024/02/06 22:29:59;;;;;;;0.50;0.50;;;9.40;97.00;;;;;;10454629;28;20361;-79
2024/02/06 22:35:01;;;;;;;0.40;0.40;;;9.30;96.90;;;;;;10455947;28;20248;-80
2024/02/06 22:40:05;;;;;;;0.50;0.50;;;9.20;96.90;;;;;;10461014;28;20267;-81
2024/02/06 22:45:11;;;;;;;0.40;0.40;;;9.20;97.00;;;;;;10456551;28;20212;-80
2024/02/06 22:50:13;;;;;;;0.40;0.40;;;9.20;97.00;;;;;;10445244;28;20250;-82
2024/02/06 22:55:17;;;;;;;0.40;0.40;;;9.10;97.10;;;;;;10446112;28;20225;-82
2024/02/06 23:00:29;;;;;;;0.50;0.50;;;9.00;97.20;;;;;;10454142;28;20257;-82
2024/02/06 23:05:31;;;;;;;0.50;0.50;;;9.00;97.20;;;;;;10456989;28;20274;-81
2024/02/06 23:10:35;;;;;;;0.40;0.40;;;9.00;97.30;;;;;;10478797;28;20188;-83
2024/02/06 23:15:37;;;;;;;0.40;0.40;;;9.00;97.30;;;;;;10498227;28;20224;-81
2024/02/06 23:20:40;;;;;;;0.30;0.30;;;9.00;97.40;;;;;;10495096;28;20254;-82
2024/02/06 23:25:43;;;;;;;0.40;0.40;;;9.10;97.30;;;;;;10460205;28;20193;-80
2024/02/06 23:30:48;;;;;;;0.30;0.30;;;9.10;97.30;;;;;;10463563;28;20197;-80
2024/02/06 23:35:50;;;;;;;0.40;0.40;;;9.10;97.30;;;;;;10461547;28;20201;-78
2024/02/06 23:40:54;;;;;;;0.40;0.40;;;9.10;97.20;;;;;;10462078;28;20209;-81
2024/02/06 23:45:57;;;;;;;0.40;0.40;;;9.10;97.40;;;;;;10462639;28;20189;-80
2024/02/06 23:50:59;;;;;;;0.30;0.30;;;9.10;97.50;;;;;;10461812;28;20224;-83
2024/02/06 23:56:04;;;;;;;0.47;0.47;;;9.10;97.30;;;;;;10462984;28;20307;-80
